sensor_id;sensor_type;location;lat;lon;timestamp;pressure;altitude;pressure_sealevel;temperature;humidity
48364;BME280;34170;54.364;18.582;2023-09-07T00:00:20;101416.09;;;17.68;100.00
48364;BME280;34170;54.364;18.582;2023-09-07T00:03:08;101378.19;;;17.67;100.00
48364;BME280;34170;54.364;18.582;2023-09-07T00:05:36;101414.47;;;17.84;100.00
48364;BME280;34170;54.364;18.582;2023-09-07T00:08:04;101414.84;;;17.97;100.00
48364;BME280;34170;54.364;18.582;2023-09-07T00:10:32;101386.56;;;17.82;100.00
48364;BME280;34170;54.364;18.582;2023-09-07T00:13:03;101378.88;;;17.77;100.00
48364;BME280;34170;54.364;18.582;2023-09-07T00:15:36;101379.41;;;17.72;100.00
48364;BME280;34170;54.364;18.582;2023-09-07T00:18:04;101420.97;;;17.91;100.00
48364;BME280;34170;54.364;18.582;2023-09-07T00:20:32;101417.50;;;17.81;100.00
48364;BME280;34170;54.364;18.582;2023-09-07T00:23:01;101386.28;;;17.50;100.00
48364;BME280;34170;54.364;18.582;2023-09-07T00:25:28;101380.63;;;17.36;100.00
48364;BME280;34170;54.364;18.582;2023-09-07T00:27:56;101417.41;;;17.56;100.00
48364;BME280;34170;54.364;18.582;2023-09-07T00:30:24;101414.66;;;17.48;100.00
48364;BME280;34170;54.364;18.582;2023-09-07T00:32:52;101389.41;;;17.29;100.00
48364;BME280;34170;54.364;18.582;2023-09-07T00:35:19;101386.69;;;17.29;100.00
48364;BME280;34170;54.364;18.582;2023-09-07T00:37:49;101415.31;;;17.42;100.00
48364;BME280;34170;54.364;18.582;2023-09-07T00:40:17;101420.75;;;17.42;100.00
48364;BME280;34170;54.364;18.582;2023-09-07T00:42:44;101414.47;;;17.41;100.00
48364;BME280;34170;54.364;18.582;2023-09-07T00:45:12;101420.75;;;17.42;100.00
48364;BME280;34170;54.364;18.582;2023-09-07T00:47:41;101422.16;;;17.54;100.00
48364;BME280;34170;54.364;18.582;2023-09-07T00:50:09;101423.63;;;17.83;100.00
48364;BME280;34170;54.364;18.582;2023-09-07T00:52:38;101418.31;;;18.24;100.00
48364;BME280;34170;54.364;18.582;2023-09-07T00:55:08;101398.59;;;18.30;100.00
48364;BME280;34170;54.364;18.582;2023-09-07T00:57:37;101415.94;;;18.54;100.00
48364;BME280;34170;54.364;18.582;2023-09-07T01:00:07;101412.56;;;18.52;100.00
48364;BME280;34170;54.364;18.582;2023-09-07T01:02:35;101398.41;;;18.40;100.00
48364;BME280;34170;54.364;18.582;2023-09-07T01:05:04;101422.94;;;18.64;100.00
48364;BME280;34170;54.364;18.582;2023-09-07T01:07:37;101393.16;;;18.55;100.00
48364;BME280;34170;54.364;18.582;2023-09-07T01:10:06;101418.84;;;18.77;100.00
48364;BME280;34170;54.364;18.582;2023-09-07T01:12:35;101428.22;;;18.82;100.00
48364;BME280;34170;54.364;18.582;2023-09-07T01:15:03;101420.72;;;18.84;100.00
48364;BME280;34170;54.364;18.582;2023-09-07T01:17:33;101420.72;;;18.93;100.00
48364;BME280;34170;54.364;18.582;2023-09-07T01:20:04;101419.72;;;18.85;100.00
48364;BME280;34170;54.364;18.582;2023-09-07T01:22:38;101420.72;;;18.84;100.00
48364;BME280;34170;54.364;18.582;2023-09-07T01:25:07;101419.34;;;18.89;100.00
48364;BME280;34170;54.364;18.582;2023-09-07T01:27:34;101420.03;;;18.99;100.00
48364;BME280;34170;54.364;18.582;2023-09-07T01:30:03;101432.63;;;19.00;100.00
48364;BME280;34170;54.364;18.582;2023-09-07T01:32:31;101423.41;;;19.01;100.00
48364;BME280;34170;54.364;18.582;2023-09-07T01:34:59;101431.44;;;19.02;100.00
48364;BME280;34170;54.364;18.582;2023-09-07T01:37:29;101421.75;;;19.00;100.00
48364;BME280;34170;54.364;18.582;2023-09-07T01:39:57;101424.47;;;18.92;100.00
48364;BME280;34170;54.364;18.582;2023-09-07T01:42:24;101385.09;;;18.78;100.00
48364;BME280;34170;54.364;18.582;2023-09-07T01:44:52;101430.75;;;19.00;100.00
48364;BME280;34170;54.364;18.582;2023-09-07T01:47:19;101426.50;;;18.98;100.00
48364;BME280;34170;54.364;18.582;2023-09-07T01:49:47;101415.28;;;18.93;100.00
48364;BME280;34170;54.364;18.582;2023-09-07T01:52:15;101431.25;;;19.04;100.00
48364;BME280;34170;54.364;18.582;2023-09-07T01:54:43;101412.88;;;18.98;100.00
48364;BME280;34170;54.364;18.582;2023-09-07T01:57:10;101436.00;;;19.18;100.00
48364;BME280;34170;54.364;18.582;2023-09-07T01:59:38;101432.59;;;19.16;100.00
48364;BME280;34170;54.364;18.582;2023-09-07T02:02:05;101426.16;;;19.09;100.00
48364;BME280;34170;54.364;18.582;2023-09-07T02:04:33;101404.38;;;18.93;100.00
48364;BME280;34170;54.364;18.582;2023-09-07T02:07:00;101431.25;;;19.12;100.00
48364;BME280;34170;54.364;18.582;2023-09-07T02:09:28;101422.75;;;19.07;100.00
48364;BME280;34170;54.364;18.582;2023-09-07T02:11:56;101411.72;;;18.84;100.00
48364;BME280;34170;54.364;18.582;2023-09-07T02:14:23;101416.31;;;18.83;100.00
48364;BME280;34170;54.364;18.582;2023-09-07T02:16:51;101428.06;;;18.84;100.00
48364;BME280;34170;54.364;18.582;2023-09-07T02:19:18;101430.09;;;18.90;100.00
48364;BME280;34170;54.364;18.582;2023-09-07T02:21:49;101429.56;;;18.78;100.00
48364;BME280;34170;54.364;18.582;2023-09-07T02:24:20;101425.81;;;18.79;100.00
48364;BME280;34170;54.364;18.582;2023-09-07T02:26:47;101432.13;;;18.80;100.00
48364;BME280;34170;54.364;18.582;2023-09-07T02:29:15;101412.53;;;18.76;100.00
48364;BME280;34170;54.364;18.582;2023-09-07T02:31:42;101436.72;;;19.04;100.00
48364;BME280;34170;54.364;18.582;2023-09-07T02:34:10;101437.88;;;19.18;100.00
48364;BME280;34170;54.364;18.582;2023-09-07T02:36:37;101439.72;;;19.34;100.00
48364;BME280;34170;54.364;18.582;2023-09-07T02:39:05;101420.31;;;19.20;100.00
48364;BME280;34170;54.364;18.582;2023-09-07T02:41:35;101410.78;;;19.08;100.00
48364;BME280;34170;54.364;18.582;2023-09-07T02:44:03;101426.31;;;19.08;100.00
48364;BME280;34170;54.364;18.582;2023-09-07T02:46:31;101440.16;;;18.98;100.00
48364;BME280;34170;54.364;18.582;2023-09-07T02:48:58;101436.16;;;19.17;100.00
48364;BME280;34170;54.364;18.582;2023-09-07T02:51:26;101424.47;;;19.00;100.00
48364;BME280;34170;54.364;18.582;2023-09-07T02:54:12;101438.94;;;19.09;100.00
48364;BME280;34170;54.364;18.582;2023-09-07T02:56:40;101431.94;;;19.06;100.00
48364;BME280;34170;54.364;18.582;2023-09-07T02:59:07;101418.84;;;19.01;100.00
48364;BME280;34170;54.364;18.582;2023-09-07T03:01:35;101432.81;;;19.07;100.00
48364;BME280;34170;54.364;18.582;2023-09-07T03:04:06;101431.97;;;18.98;100.00
48364;BME280;34170;54.364;18.582;2023-09-07T03:06:35;101433.69;;;18.91;100.00
48364;BME280;34170;54.364;18.582;2023-09-07T03:09:03;101432.81;;;18.98;100.00
48364;BME280;34170;54.364;18.582;2023-09-07T03:11:37;101436.06;;;18.85;100.00
48364;BME280;34170;54.364;18.582;2023-09-07T03:14:05;101441.16;;;18.80;100.00
48364;BME280;34170;54.364;18.582;2023-09-07T03:16:33;101412.53;;;18.68;100.00
48364;BME280;34170;54.364;18.582;2023-09-07T03:19:01;101436.56;;;18.73;100.00
48364;BME280;34170;54.364;18.582;2023-09-07T03:21:28;101426.16;;;18.76;100.00
48364;BME280;34170;54.364;18.582;2023-09-07T03:23:57;101408.28;;;18.57;100.00
48364;BME280;34170;54.364;18.582;2023-09-07T03:26:25;101419.72;;;18.69;100.00
48364;BME280;34170;54.364;18.582;2023-09-07T03:28:53;101408.81;;;18.69;100.00
48364;BME280;34170;54.364;18.582;2023-09-07T03:31:20;101440.84;;;18.83;100.00
48364;BME280;34170;54.364;18.582;2023-09-07T03:33:49;101442.16;;;18.79;100.00
48364;BME280;34170;54.364;18.582;2023-09-07T03:36:17;101403.34;;;18.69;100.00
48364;BME280;34170;54.364;18.582;2023-09-07T03:38:45;101414.41;;;18.59;100.00
48364;BME280;34170;54.364;18.582;2023-09-07T03:41:14;101415.44;;;18.66;100.00
48364;BME280;34170;54.364;18.582;2023-09-07T03:43:42;101435.03;;;18.78;100.00
48364;BME280;34170;54.364;18.582;2023-09-07T03:46:09;101435.03;;;18.78;100.00
48364;BME280;34170;54.364;18.582;2023-09-07T03:48:37;101444.59;;;18.91;100.00
48364;BME280;34170;54.364;18.582;2023-09-07T03:51:08;101423.25;;;18.78;100.00
48364;BME280;34170;54.364;18.582;2023-09-07T03:53:35;101446.78;;;18.95;100.00
48364;BME280;34170;54.364;18.582;2023-09-07T03:56:03;101449.84;;;19.00;100.00
48364;BME280;34170;54.364;18.582;2023-09-07T03:58:32;101448.47;;;19.04;100.00
48364;BME280;34170;54.364;18.582;2023-09-07T04:01:00;101454.41;;;19.08;100.00
48364;BME280;34170;54.364;18.582;2023-09-07T04:03:29;101448.63;;;19.11;100.00
48364;BME280;34170;54.364;18.582;2023-09-07T04:05:57;101421.56;;;18.93;100.00
48364;BME280;34170;54.364;18.582;2023-09-07T04:08:25;101419.34;;;18.89;100.00
48364;BME280;34170;54.364;18.582;2023-09-07T04:10:52;101456.97;;;19.18;100.00
48364;BME280;34170;54.364;18.582;2023-09-07T04:13:20;101424.13;;;18.95;100.00
48364;BME280;34170;54.364;18.582;2023-09-07T04:15:48;101453.06;;;19.12;100.00
48364;BME280;34170;54.364;18.582;2023-09-07T04:18:16;101447.78;;;19.11;100.00
48364;BME280;34170;54.364;18.582;2023-09-07T04:20:45;101450.00;;;19.07;100.00
48364;BME280;34170;54.364;18.582;2023-09-07T04:23:14;101450.69;;;19.01;100.00
48364;BME280;34170;54.364;18.582;2023-09-07T04:25:42;101464.31;;;19.01;100.00
48364;BME280;34170;54.364;18.582;2023-09-07T04:28:12;101460.53;;;19.18;100.00
48364;BME280;34170;54.364;18.582;2023-09-07T04:30:41;101459.66;;;19.26;100.00
48364;BME280;34170;54.364;18.582;2023-09-07T04:33:09;101435.31;;;19.24;100.00
48364;BME280;34170;54.364;18.582;2023-09-07T04:35:38;101453.41;;;19.17;100.00
48364;BME280;34170;54.364;18.582;2023-09-07T04:38:07;101458.97;;;19.32;100.00
48364;BME280;34170;54.364;18.582;2023-09-07T04:40:34;101466.00;;;19.27;100.00
48364;BME280;34170;54.364;18.582;2023-09-07T04:43:03;101472.50;;;19.17;100.00
48364;BME280;34170;54.364;18.582;2023-09-07T04:45:30;101460.22;;;18.80;100.00
48364;BME280;34170;54.364;18.582;2023-09-07T04:47:58;101464.63;;;18.40;100.00
48364;BME280;34170;54.364;18.582;2023-09-07T04:50:26;101464.38;;;18.09;100.00
48364;BME280;34170;54.364;18.582;2023-09-07T04:52:53;101476.03;;;18.36;100.00
48364;BME280;34170;54.364;18.582;2023-09-07T04:55:21;101443.28;;;18.11;100.00
48364;BME280;34170;54.364;18.582;2023-09-07T04:57:49;101460.88;;;18.58;100.00
48364;BME280;34170;54.364;18.582;2023-09-07T05:00:16;101443.31;;;18.27;100.00
48364;BME280;34170;54.364;18.582;2023-09-07T05:02:44;101467.22;;;18.83;100.00
48364;BME280;34170;54.364;18.582;2023-09-07T05:05:13;101472.28;;;19.27;100.00
48364;BME280;34170;54.364;18.582;2023-09-07T05:07:41;101462.59;;;18.67;100.00
48364;BME280;34170;54.364;18.582;2023-09-07T05:10:09;101448.97;;;19.16;100.00
48364;BME280;34170;54.364;18.582;2023-09-07T05:12:40;101458.16;;;19.32;100.00
48364;BME280;34170;54.364;18.582;2023-09-07T05:15:08;101469.28;;;18.89;100.00
48364;BME280;34170;54.364;18.582;2023-09-07T05:17:36;101478.38;;;19.46;100.00
48364;BME280;34170;54.364;18.582;2023-09-07T05:20:06;101451.38;;;18.62;100.00
48364;BME280;34170;54.364;18.582;2023-09-07T05:22:34;101460.44;;;19.59;100.00
48364;BME280;34170;54.364;18.582;2023-09-07T05:25:05;101481.22;;;20.08;100.00
48364;BME280;34170;54.364;18.582;2023-09-07T05:27:34;101503.38;;;20.45;100.00
48364;BME280;34170;54.364;18.582;2023-09-07T05:30:03;101465.91;;;19.99;100.00
48364;BME280;34170;54.364;18.582;2023-09-07T05:32:31;101487.38;;;20.65;100.00
48364;BME280;34170;54.364;18.582;2023-09-07T05:34:59;101498.56;;;20.47;100.00
48364;BME280;34170;54.364;18.582;2023-09-07T05:37:26;101469.00;;;20.27;100.00
48364;BME280;34170;54.364;18.582;2023-09-07T05:39:54;101490.47;;;20.62;100.00
48364;BME280;34170;54.364;18.582;2023-09-07T05:42:22;101488.13;;;21.49;100.00
48364;BME280;34170;54.364;18.582;2023-09-07T05:44:49;101499.81;;;21.43;100.00
48364;BME280;34170;54.364;18.582;2023-09-07T05:47:19;101481.81;;;21.64;100.00
48364;BME280;34170;54.364;18.582;2023-09-07T05:49:47;101500.03;;;21.86;100.00
48364;BME280;34170;54.364;18.582;2023-09-07T05:52:14;101473.72;;;21.03;100.00
48364;BME280;34170;54.364;18.582;2023-09-07T05:54:42;101504.00;;;21.69;100.00
48364;BME280;34170;54.364;18.582;2023-09-07T05:57:10;101513.25;;;21.83;100.00
48364;BME280;34170;54.364;18.582;2023-09-07T05:59:38;101479.75;;;21.66;100.00
48364;BME280;34170;54.364;18.582;2023-09-07T06:02:06;101506.19;;;23.05;100.00
48364;BME280;34170;54.364;18.582;2023-09-07T06:04:34;101510.88;;;24.09;94.05
48364;BME280;34170;54.364;18.582;2023-09-07T06:07:03;101481.91;;;22.58;96.06
48364;BME280;34170;54.364;18.582;2023-09-07T06:09:30;101506.00;;;26.18;75.93
48364;BME280;34170;54.364;18.582;2023-09-07T06:11:58;101521.75;;;27.38;61.88
48364;BME280;34170;54.364;18.582;2023-09-07T06:14:26;101520.91;;;29.02;54.33
48364;BME280;34170;54.364;18.582;2023-09-07T06:16:53;101522.91;;;30.71;46.84
48364;BME280;34170;54.364;18.582;2023-09-07T06:19:21;101512.78;;;27.17;57.73
48364;BME280;34170;54.364;18.582;2023-09-07T06:21:49;101500.56;;;24.17;74.72
48364;BME280;34170;54.364;18.582;2023-09-07T06:24:16;101500.44;;;24.46;77.18
48364;BME280;34170;54.364;18.582;2023-09-07T06:26:44;101521.28;;;23.44;83.54
48364;BME280;34170;54.364;18.582;2023-09-07T06:29:13;101530.00;;;24.37;81.28
48364;BME280;34170;54.364;18.582;2023-09-07T06:31:41;101531.19;;;27.30;65.65
48364;BME280;34170;54.364;18.582;2023-09-07T06:34:09;101525.19;;;29.17;54.51
48364;BME280;34170;54.364;18.582;2023-09-07T06:36:37;101528.19;;;31.52;46.72
48364;BME280;34170;54.364;18.582;2023-09-07T06:39:16;101540.06;;;28.13;54.87
48364;BME280;34170;54.364;18.582;2023-09-07T06:41:46;101529.88;;;30.56;47.03
48364;BME280;34170;54.364;18.582;2023-09-07T06:44:16;101538.50;;;31.73;42.80
48364;BME280;34170;54.364;18.582;2023-09-07T06:46:45;101538.22;;;34.18;37.32
48364;BME280;34170;54.364;18.582;2023-09-07T06:49:13;101525.06;;;34.14;36.05
48364;BME280;34170;54.364;18.582;2023-09-07T06:51:41;101538.38;;;31.85;40.91
48364;BME280;34170;54.364;18.582;2023-09-07T06:54:08;101539.38;;;33.00;38.83
48364;BME280;34170;54.364;18.582;2023-09-07T06:56:37;101550.44;;;34.12;35.78
48364;BME280;34170;54.364;18.582;2023-09-07T06:59:05;101559.03;;;34.89;34.80
48364;BME280;34170;54.364;18.582;2023-09-07T07:01:33;101542.41;;;36.95;30.91
48364;BME280;34170;54.364;18.582;2023-09-07T07:04:00;101539.09;;;38.62;28.15
48364;BME280;34170;54.364;18.582;2023-09-07T07:06:29;101561.03;;;37.45;28.83
48364;BME280;34170;54.364;18.582;2023-09-07T07:08:56;101557.72;;;31.97;38.17
48364;BME280;34170;54.364;18.582;2023-09-07T07:11:24;101530.88;;;34.07;34.21
48364;BME280;34170;54.364;18.582;2023-09-07T07:13:51;101537.38;;;33.22;36.15
48364;BME280;34170;54.364;18.582;2023-09-07T07:16:19;101559.34;;;35.19;33.28
48364;BME280;34170;54.364;18.582;2023-09-07T07:18:47;101526.63;;;35.04;32.58
48364;BME280;34170;54.364;18.582;2023-09-07T07:21:16;101565.50;;;34.06;33.47
48364;BME280;34170;54.364;18.582;2023-09-07T07:23:43;101557.38;;;34.99;33.19
48364;BME280;34170;54.364;18.582;2023-09-07T07:26:11;101572.59;;;37.04;29.87
48364;BME280;34170;54.364;18.582;2023-09-07T07:28:39;101570.41;;;35.96;31.23
48364;BME280;34170;54.364;18.582;2023-09-07T07:31:08;101578.31;;;38.05;28.34
48364;BME280;34170;54.364;18.582;2023-09-07T07:33:42;101559.69;;;39.56;25.34
48364;BME280;34170;54.364;18.582;2023-09-07T07:36:11;101559.59;;;35.43;31.32
48364;BME280;34170;54.364;18.582;2023-09-07T07:38:38;101570.47;;;35.75;31.65
48364;BME280;34170;54.364;18.582;2023-09-07T07:41:07;101574.09;;;33.14;35.72
48364;BME280;34170;54.364;18.582;2023-09-07T07:43:35;101573.50;;;33.92;34.81
48364;BME280;34170;54.364;18.582;2023-09-07T07:46:04;101550.31;;;35.83;31.98
48364;BME280;34170;54.364;18.582;2023-09-07T07:48:33;101563.22;;;35.12;32.63
48364;BME280;34170;54.364;18.582;2023-09-07T07:51:04;101542.00;;;33.49;34.49
48364;BME280;34170;54.364;18.582;2023-09-07T07:53:36;101567.41;;;34.89;33.44
48364;BME280;34170;54.364;18.582;2023-09-07T07:56:05;101550.03;;;35.69;31.54
48364;BME280;34170;54.364;18.582;2023-09-07T07:58:32;101578.41;;;37.17;29.98
48364;BME280;34170;54.364;18.582;2023-09-07T08:01:02;101553.66;;;35.85;30.95
48364;BME280;34170;54.364;18.582;2023-09-07T08:03:31;101570.22;;;34.74;33.23
48364;BME280;34170;54.364;18.582;2023-09-07T08:06:01;101550.38;;;34.86;32.82
48364;BME280;34170;54.364;18.582;2023-09-07T08:08:29;101544.13;;;34.43;33.65
48364;BME280;34170;54.364;18.582;2023-09-07T08:10:57;101567.66;;;32.10;38.16
48364;BME280;34170;54.364;18.582;2023-09-07T08:13:28;101549.41;;;32.68;36.64
48364;BME280;34170;54.364;18.582;2023-09-07T08:15:59;101563.81;;;34.05;35.60
48364;BME280;34170;54.364;18.582;2023-09-07T08:18:27;101583.47;;;36.76;31.33
48364;BME280;34170;54.364;18.582;2023-09-07T08:20:55;101574.13;;;37.54;28.85
48364;BME280;34170;54.364;18.582;2023-09-07T08:23:23;101565.75;;;35.14;32.03
48364;BME280;34170;54.364;18.582;2023-09-07T08:25:52;101568.72;;;34.41;34.08
48364;BME280;34170;54.364;18.582;2023-09-07T08:28:20;101565.50;;;31.39;39.49
48364;BME280;34170;54.364;18.582;2023-09-07T08:30:50;101551.00;;;31.93;38.83
48364;BME280;34170;54.364;18.582;2023-09-07T08:33:22;101576.13;;;31.81;38.61
48364;BME280;34170;54.364;18.582;2023-09-07T08:35:55;101582.53;;;33.24;35.69
48364;BME280;34170;54.364;18.582;2023-09-07T08:38:23;101551.78;;;30.70;40.87
48364;BME280;34170;54.364;18.582;2023-09-07T08:41:01;101572.88;;;28.77;47.28
48364;BME280;34170;54.364;18.582;2023-09-07T08:43:33;101560.84;;;28.83;47.33
48364;BME280;34170;54.364;18.582;2023-09-07T08:46:23;101558.31;;;27.58;50.63
48364;BME280;34170;54.364;18.582;2023-09-07T08:48:51;101558.28;;;28.21;50.32
48364;BME280;34170;54.364;18.582;2023-09-07T08:51:19;101526.72;;;28.59;49.86
48364;BME280;34170;54.364;18.582;2023-09-07T08:53:47;101567.41;;;28.21;50.24
48364;BME280;34170;54.364;18.582;2023-09-07T08:56:18;101566.66;;;28.93;48.50
48364;BME280;34170;54.364;18.582;2023-09-07T08:58:48;101546.81;;;30.55;43.80
48364;BME280;34170;54.364;18.582;2023-09-07T09:01:19;101571.66;;;32.41;39.41
48364;BME280;34170;54.364;18.582;2023-09-07T09:03:50;101552.47;;;30.77;42.40
48364;BME280;34170;54.364;18.582;2023-09-07T09:06:20;101546.81;;;31.01;42.37
48364;BME280;34170;54.364;18.582;2023-09-07T09:08:50;101576.31;;;32.14;40.47
48364;BME280;34170;54.364;18.582;2023-09-07T09:11:19;101569.34;;;31.94;40.06
48364;BME280;34170;54.364;18.582;2023-09-07T09:13:49;101544.19;;;31.11;42.31
48364;BME280;34170;54.364;18.582;2023-09-07T09:16:17;101547.97;;;31.39;41.75
48364;BME280;34170;54.364;18.582;2023-09-07T09:18:56;101553.50;;;31.72;42.38
48364;BME280;34170;54.364;18.582;2023-09-07T09:21:27;101540.91;;;31.31;42.90
48364;BME280;34170;54.364;18.582;2023-09-07T09:23:56;101556.91;;;30.61;44.82
48364;BME280;34170;54.364;18.582;2023-09-07T09:26:25;101540.59;;;32.27;41.08
48364;BME280;34170;54.364;18.582;2023-09-07T09:28:56;101565.81;;;30.92;43.30
48364;BME280;34170;54.364;18.582;2023-09-07T09:31:24;101534.84;;;31.17;42.46
48364;BME280;34170;54.364;18.582;2023-09-07T09:33:52;101550.97;;;30.69;46.00
48364;BME280;34170;54.364;18.582;2023-09-07T09:36:20;101555.78;;;29.81;47.87
48364;BME280;34170;54.364;18.582;2023-09-07T09:38:49;101556.91;;;31.58;43.95
48364;BME280;34170;54.364;18.582;2023-09-07T09:41:18;101548.94;;;30.36;45.68
48364;BME280;34170;54.364;18.582;2023-09-07T09:43:46;101554.28;;;30.54;45.79
48364;BME280;34170;54.364;18.582;2023-09-07T09:46:17;101544.34;;;29.30;48.84
48364;BME280;34170;54.364;18.582;2023-09-07T09:48:45;101543.00;;;28.18;52.91
48364;BME280;34170;54.364;18.582;2023-09-07T09:51:14;101546.75;;;29.86;48.65
48364;BME280;34170;54.364;18.582;2023-09-07T09:53:42;101552.50;;;29.72;48.15
48364;BME280;34170;54.364;18.582;2023-09-07T09:56:10;101528.16;;;29.03;49.37
48364;BME280;34170;54.364;18.582;2023-09-07T09:58:38;101556.50;;;29.64;48.37
48364;BME280;34170;54.364;18.582;2023-09-07T10:01:07;101539.19;;;28.80;51.86
48364;BME280;34170;54.364;18.582;2023-09-07T10:03:41;101534.06;;;30.42;46.59
48364;BME280;34170;54.364;18.582;2023-09-07T10:06:19;101541.94;;;28.49;51.68
48364;BME280;34170;54.364;18.582;2023-09-07T10:11:33;101547.53;;;30.10;47.96
48364;BME280;34170;54.364;18.582;2023-09-07T10:14:02;101561.16;;;30.52;46.36
48364;BME280;34170;54.364;18.582;2023-09-07T10:16:46;101548.69;;;30.37;46.57
48364;BME280;34170;54.364;18.582;2023-09-07T10:19:19;101558.44;;;31.14;44.32
48364;BME280;34170;54.364;18.582;2023-09-07T10:21:48;101532.31;;;31.15;44.28
48364;BME280;34170;54.364;18.582;2023-09-07T10:24:35;101546.72;;;30.50;45.17
48364;BME280;34170;54.364;18.582;2023-09-07T10:27:09;101542.53;;;29.71;47.98
48364;BME280;34170;54.364;18.582;2023-09-07T10:29:41;101545.28;;;28.70;51.02
48364;BME280;34170;54.364;18.582;2023-09-07T10:32:10;101508.00;;;30.31;46.30
48364;BME280;34170;54.364;18.582;2023-09-07T10:34:42;101529.22;;;30.09;47.23
48364;BME280;34170;54.364;18.582;2023-09-07T10:37:13;101535.50;;;28.37;52.45
48364;BME280;34170;54.364;18.582;2023-09-07T10:39:43;101536.91;;;25.15;66.41
48364;BME280;34170;54.364;18.582;2023-09-07T10:42:21;101512.19;;;27.59;59.31
48364;BME280;34170;54.364;18.582;2023-09-07T10:44:49;101522.09;;;27.67;57.01
48364;BME280;34170;54.364;18.582;2023-09-07T10:47:18;101538.41;;;28.61;54.17
48364;BME280;34170;54.364;18.582;2023-09-07T10:49:46;101532.56;;;28.81;51.47
48364;BME280;34170;54.364;18.582;2023-09-07T10:52:14;101514.28;;;26.56;61.83
48364;BME280;34170;54.364;18.582;2023-09-07T10:54:41;101507.31;;;27.36;57.34
48364;BME280;34170;54.364;18.582;2023-09-07T10:57:10;101508.16;;;27.11;58.12
48364;BME280;34170;54.364;18.582;2023-09-07T10:59:38;101526.88;;;25.87;65.32
48364;BME280;34170;54.364;18.582;2023-09-07T11:02:06;101498.28;;;25.88;66.01
48364;BME280;34170;54.364;18.582;2023-09-07T11:04:33;101525.06;;;26.26;65.56
48364;BME280;34170;54.364;18.582;2023-09-07T11:07:02;101526.31;;;26.30;63.68
48364;BME280;34170;54.364;18.582;2023-09-07T11:09:30;101501.97;;;27.16;59.92
48364;BME280;34170;54.364;18.582;2023-09-07T11:12:05;101528.81;;;27.34;60.17
48364;BME280;34170;54.364;18.582;2023-09-07T11:14:33;101499.16;;;26.27;63.05
48364;BME280;34170;54.364;18.582;2023-09-07T11:17:01;101497.41;;;26.39;64.18
48364;BME280;34170;54.364;18.582;2023-09-07T11:19:33;101494.09;;;25.65;68.10
48364;BME280;34170;54.364;18.582;2023-09-07T11:22:01;101526.56;;;25.43;71.37
48364;BME280;34170;54.364;18.582;2023-09-07T11:24:34;101521.72;;;24.24;77.45
48364;BME280;34170;54.364;18.582;2023-09-07T11:27:02;101499.69;;;22.84;89.07
48364;BME280;34170;54.364;18.582;2023-09-07T11:29:32;101492.84;;;23.86;82.42
48364;BME280;34170;54.364;18.582;2023-09-07T11:32:07;101504.38;;;24.23;79.44
48364;BME280;34170;54.364;18.582;2023-09-07T11:34:52;101496.13;;;24.23;80.35
48364;BME280;34170;54.364;18.582;2023-09-07T11:37:25;101513.78;;;23.94;82.28
48364;BME280;34170;54.364;18.582;2023-09-07T11:39:53;101497.38;;;23.72;83.80
48364;BME280;34170;54.364;18.582;2023-09-07T11:42:21;101498.94;;;22.97;87.52
48364;BME280;34170;54.364;18.582;2023-09-07T11:44:49;101523.31;;;23.07;89.98
48364;BME280;34170;54.364;18.582;2023-09-07T11:47:17;101524.19;;;23.70;85.76
48364;BME280;34170;54.364;18.582;2023-09-07T11:49:45;101525.72;;;23.79;84.52
48364;BME280;34170;54.364;18.582;2023-09-07T11:52:13;101518.59;;;23.85;84.15
48364;BME280;34170;54.364;18.582;2023-09-07T11:54:40;101498.75;;;23.90;83.31
48364;BME280;34170;54.364;18.582;2023-09-07T11:57:08;101493.97;;;23.35;85.24
48364;BME280;34170;54.364;18.582;2023-09-07T11:59:36;101519.22;;;23.24;87.61
48364;BME280;34170;54.364;18.582;2023-09-07T12:02:22;101505.19;;;22.91;90.37
48364;BME280;34170;54.364;18.582;2023-09-07T12:04:50;101513.97;;;22.79;89.90
48364;BME280;34170;54.364;18.582;2023-09-07T12:07:33;101518.16;;;23.03;88.55
48364;BME280;34170;54.364;18.582;2023-09-07T12:10:01;101490.00;;;23.38;86.33
48364;BME280;34170;54.364;18.582;2023-09-07T12:12:29;101485.06;;;22.77;88.89
48364;BME280;34170;54.364;18.582;2023-09-07T12:14:57;101507.75;;;22.92;88.38
48364;BME280;34170;54.364;18.582;2023-09-07T12:17:25;101489.63;;;22.91;89.01
48364;BME280;34170;54.364;18.582;2023-09-07T12:19:52;101495.31;;;22.96;89.58
48364;BME280;34170;54.364;18.582;2023-09-07T12:22:20;101517.00;;;23.34;88.64
48364;BME280;34170;54.364;18.582;2023-09-07T12:24:48;101514.06;;;23.42;87.91
48364;BME280;34170;54.364;18.582;2023-09-07T12:27:35;101510.75;;;23.47;89.26
48364;BME280;34170;54.364;18.582;2023-09-07T12:30:20;101510.63;;;23.34;89.95
48364;BME280;34170;54.364;18.582;2023-09-07T12:32:48;101491.66;;;23.11;92.58
48364;BME280;34170;54.364;18.582;2023-09-07T12:35:16;101476.38;;;23.01;92.27
48364;BME280;34170;54.364;18.582;2023-09-07T12:37:43;101506.91;;;22.92;92.63
48364;BME280;34170;54.364;18.582;2023-09-07T12:40:11;101506.75;;;23.00;93.15
48364;BME280;34170;54.364;18.582;2023-09-07T12:42:43;101488.94;;;23.11;92.65
48364;BME280;34170;54.364;18.582;2023-09-07T12:45:12;101471.03;;;23.15;91.33
48364;BME280;34170;54.364;18.582;2023-09-07T12:47:41;101499.66;;;23.34;89.67